Waggaman, Louisiana
Current Conditions -  °F | °C
As of 9:53 AM on Saturday 25 Oct 2014 (Local Time) from KMSY Reporting Station
Clear Clear  
Wind Chill: 70°   Ceiling: Unl
Heat Index: 70°   Visibility: 10mi
Dew Point: 53°   Wind: 9mph
Humidity: 55%   Direction: 30°NNE
Pressure: 30.16"   Gusts: NA
Location:  29.9137°N, 90.2078°W
Report Text: KMSY 251453Z 03008KT 10SM CLR 21/12 A3016 RMK AO2 SLP217 T02110117 51013
Loading
Personal Weather Stations






























Interactive Weather Map
Tropical Storm Tracking
New forecast layout! Learn more

10-Day Weather Forecast

Advertisements
Track Severe Weather on mobile